createdAt,value
2024-05-09T00:00:44.201Z,99.90
2024-05-09T00:03:12.516Z,99.90
2024-05-09T00:05:44.331Z,99.90
2024-05-09T00:08:12.525Z,99.90
2024-05-09T00:10:41.236Z,99.90
2024-05-09T00:13:10.414Z,99.90
2024-05-09T00:15:38.956Z,99.90
2024-05-09T00:18:07.730Z,99.90
2024-05-09T00:20:39.559Z,99.90
2024-05-09T00:23:10.742Z,99.90
2024-05-09T00:25:39.105Z,99.90
2024-05-09T00:28:06.844Z,99.90
2024-05-09T00:30:36.529Z,99.90
2024-05-09T00:33:06.607Z,99.90
2024-05-09T00:35:35.785Z,99.90
2024-05-09T00:38:04.088Z,99.90
2024-05-09T00:40:41.887Z,99.90
2024-05-09T00:43:12.193Z,99.90
2024-05-09T00:45:40.720Z,99.90
2024-05-09T00:48:10.152Z,99.90
2024-05-09T00:50:40.463Z,99.90
2024-05-09T00:53:10.277Z,99.90
2024-05-09T00:55:38.751Z,99.90
2024-05-09T00:58:07.853Z,99.90
2024-05-09T01:00:39.500Z,99.90
2024-05-09T01:03:10.990Z,99.90
2024-05-09T01:05:41.126Z,99.90
2024-05-09T01:08:09.665Z,99.90
2024-05-09T01:10:37.678Z,99.90
2024-05-09T01:13:06.184Z,99.90
2024-05-09T01:15:34.385Z,99.90
2024-05-09T01:18:06.906Z,99.90
2024-05-09T01:23:09.012Z,99.90
2024-05-09T01:25:37.009Z,99.90
2024-05-09T01:28:04.793Z,99.90
2024-05-09T01:30:35.615Z,99.90
2024-05-09T01:33:10.019Z,99.90
2024-05-09T01:35:42.058Z,99.90
2024-05-09T01:38:13.920Z,99.90
2024-05-09T01:40:41.886Z,99.90
2024-05-09T01:43:10.888Z,99.90
2024-05-09T01:45:40.585Z,99.90
2024-05-09T01:48:09.268Z,99.90
2024-05-09T01:50:40.835Z,99.90
2024-05-09T01:53:11.365Z,99.90
2024-05-09T01:55:39.282Z,99.90
2024-05-09T01:58:07.675Z,99.90
2024-05-09T02:00:40.273Z,99.90
2024-05-09T02:03:13.338Z,99.90
2024-05-09T02:05:44.501Z,99.90
2024-05-09T02:08:16.255Z,99.90
2024-05-09T02:10:44.876Z,99.90
2024-05-09T02:13:13.162Z,99.90
2024-05-09T02:15:41.081Z,99.90
2024-05-09T02:18:09.152Z,99.90
2024-05-09T02:20:38.384Z,99.90
2024-05-09T02:23:06.806Z,99.90
2024-05-09T02:25:35.013Z,99.90
2024-05-09T02:28:04.609Z,99.90
2024-05-09T02:30:39.982Z,99.90
2024-05-09T02:33:11.396Z,99.90
2024-05-09T02:35:41.351Z,99.90
2024-05-09T02:38:09.463Z,99.90
2024-05-09T02:40:39.184Z,99.90
2024-05-09T02:43:09.069Z,99.90
2024-05-09T02:45:38.334Z,99.90
2024-05-09T02:48:07.038Z,99.90
2024-05-09T02:50:39.053Z,99.90
2024-05-09T02:53:08.772Z,99.90
2024-05-09T02:55:37.640Z,99.90
2024-05-09T02:58:07.088Z,99.90
2024-05-09T03:00:39.330Z,99.90
2024-05-09T03:03:12.069Z,99.90
2024-05-09T03:05:42.291Z,99.90
2024-05-09T03:08:10.185Z,99.90
2024-05-09T03:10:39.195Z,99.90
2024-05-09T03:13:07.891Z,99.90
2024-05-09T03:15:35.504Z,99.90
2024-05-09T03:18:03.685Z,99.90
2024-05-09T03:20:34.849Z,99.90
2024-05-09T03:23:04.992Z,99.90
2024-05-09T03:25:33.469Z,99.90
2024-05-09T03:28:01.264Z,99.90
2024-05-09T03:30:36.224Z,99.90
2024-05-09T03:33:13.636Z,99.90
2024-05-09T03:35:42.721Z,99.90
2024-05-09T03:38:10.266Z,99.90
2024-05-09T03:40:44.167Z,99.90
2024-05-09T03:43:12.699Z,99.90
2024-05-09T03:45:40.201Z,99.90
2024-05-09T03:48:08.475Z,99.90
2024-05-09T03:50:37.108Z,99.90
2024-05-09T03:53:05.342Z,99.90
2024-05-09T03:55:33.051Z,99.90
2024-05-09T03:58:00.569Z,99.90
2024-05-09T04:00:35.637Z,99.90
2024-05-09T04:03:09.032Z,99.90
2024-05-09T04:05:43.967Z,99.90
2024-05-09T04:08:14.208Z,99.90
2024-05-09T04:10:41.806Z,99.90
2024-05-09T04:13:09.990Z,99.90
2024-05-09T04:15:37.580Z,99.90
2024-05-09T04:18:05.605Z,99.90
2024-05-09T04:20:38.549Z,99.90
2024-05-09T04:23:11.392Z,99.90
2024-05-09T04:25:43.426Z,99.90
2024-05-09T04:28:11.105Z,99.90
2024-05-09T04:30:40.958Z,99.90
2024-05-09T04:33:14.296Z,99.90
2024-05-09T04:35:43.408Z,99.90
2024-05-09T04:38:11.902Z,99.90
2024-05-09T04:40:39.593Z,99.90
2024-05-09T04:43:07.695Z,99.90
2024-05-09T04:45:35.797Z,99.90
2024-05-09T04:48:03.869Z,99.90
2024-05-09T04:50:36.979Z,99.90
2024-05-09T04:53:08.670Z,99.90
2024-05-09T04:55:37.742Z,99.90
2024-05-09T04:58:08.025Z,99.90
2024-05-09T05:00:37.992Z,99.90
2024-05-09T05:03:08.543Z,99.90
2024-05-09T05:05:38.323Z,99.90
2024-05-09T05:08:06.460Z,99.90
2024-05-09T05:10:36.530Z,99.90
2024-05-09T05:13:18.345Z,99.90
2024-05-09T05:15:46.982Z,99.90
2024-05-09T05:18:15.459Z,99.90
2024-05-09T05:20:43.358Z,99.90
2024-05-09T05:23:12.456Z,99.90
2024-05-09T05:25:40.426Z,99.90
2024-05-09T05:28:08.216Z,99.90
2024-05-09T05:30:37.746Z,99.90
2024-05-09T05:33:06.324Z,99.90
2024-05-09T05:35:34.856Z,99.90
2024-05-09T05:38:03.080Z,99.90
2024-05-09T05:40:36.389Z,99.90
2024-05-09T05:43:06.243Z,99.90
2024-05-09T05:45:33.747Z,99.90
2024-05-09T05:48:03.391Z,99.90
2024-05-09T05:50:35.941Z,99.90
2024-05-09T05:53:06.258Z,99.90
2024-05-09T05:55:33.971Z,99.90
2024-05-09T05:58:02.059Z,99.90
2024-05-09T06:00:37.200Z,99.90
2024-05-09T06:03:07.890Z,99.90
2024-05-09T06:05:36.749Z,99.90
2024-05-09T06:08:04.885Z,99.90
2024-05-09T06:10:38.159Z,99.90
2024-05-09T06:13:09.076Z,99.90
2024-05-09T06:15:36.649Z,99.90
2024-05-09T06:18:07.828Z,99.90
2024-05-09T06:20:37.952Z,99.90
2024-05-09T06:23:06.969Z,99.90
2024-05-09T06:25:35.444Z,99.90
2024-05-09T06:28:03.758Z,99.90
2024-05-09T06:33:04.564Z,99.90
2024-05-09T06:35:32.786Z,99.90
2024-05-09T06:38:00.644Z,99.90
2024-05-09T06:40:36.695Z,99.90
2024-05-09T06:43:17.884Z,99.90
2024-05-09T06:45:48.422Z,99.90
2024-05-09T06:48:20.881Z,99.90
2024-05-09T06:50:49.367Z,99.90
2024-05-09T06:53:17.641Z,99.90
2024-05-09T06:55:45.475Z,99.90
2024-05-09T06:58:13.162Z,99.90
2024-05-09T07:00:42.060Z,99.90
2024-05-09T07:03:17.115Z,99.90
2024-05-09T07:05:47.675Z,99.90
2024-05-09T07:08:17.067Z,99.90
2024-05-09T07:10:45.154Z,99.90
2024-05-09T07:13:13.561Z,99.90
2024-05-09T07:15:41.913Z,99.90
2024-05-09T07:18:13.684Z,99.90
2024-05-09T07:20:42.447Z,99.90
2024-05-09T07:23:11.051Z,99.90
2024-05-09T07:25:39.779Z,99.90
2024-05-09T07:28:14.611Z,99.90
2024-05-09T07:30:42.565Z,99.90
2024-05-09T07:33:12.348Z,99.90
2024-05-09T07:35:40.015Z,99.90
2024-05-09T07:38:08.236Z,99.90
2024-05-09T07:40:37.155Z,99.90
2024-05-09T07:43:05.346Z,99.90
2024-05-09T07:52:23.803Z,99.90
2024-05-09T07:53:39.504Z,99.90
2024-05-09T07:56:11.871Z,99.90
2024-05-09T07:58:39.849Z,99.90
2024-05-09T08:01:07.568Z,99.90
2024-05-09T08:03:35.329Z,99.90
2024-05-09T08:06:03.020Z,99.90
2024-05-09T08:08:30.725Z,99.90
2024-05-09T08:10:58.271Z,99.90
2024-05-09T08:13:25.772Z,99.90
2024-05-09T08:15:53.445Z,99.90
2024-05-09T08:18:21.203Z,99.90
2024-05-09T08:20:49.980Z,99.90
2024-05-09T08:23:18.059Z,99.90
2024-05-09T08:25:45.576Z,99.90
2024-05-09T08:28:13.455Z,99.90
2024-05-09T08:30:41.556Z,99.90
2024-05-09T08:33:09.386Z,99.90
2024-05-09T08:35:38.053Z,99.90
2024-05-09T08:38:06.496Z,99.90
2024-05-09T08:40:36.794Z,99.90
2024-05-09T08:43:10.828Z,99.90
2024-05-09T08:45:44.689Z,99.90
2024-05-09T08:48:15.482Z,99.90
2024-05-09T08:50:45.151Z,99.90
2024-05-09T08:53:15.382Z,99.90
2024-05-09T08:55:44.355Z,99.90
2024-05-09T08:58:17.049Z,99.90
2024-05-09T09:00:46.292Z,99.90
2024-05-09T09:03:18.688Z,99.90
2024-05-09T09:06:06.741Z,99.90
2024-05-09T09:08:34.376Z,99.90
2024-05-09T09:11:02.035Z,99.90
2024-05-09T09:13:29.547Z,99.90
2024-05-09T09:16:00.315Z,99.90
2024-05-09T09:18:28.595Z,99.90
2024-05-09T09:20:56.378Z,99.90
2024-05-09T09:23:24.204Z,99.90
2024-05-09T09:25:52.635Z,99.90
2024-05-09T09:28:22.977Z,99.90
2024-05-09T09:30:50.790Z,99.90
2024-05-09T09:33:19.109Z,99.90
2024-05-09T09:35:47.095Z,99.90
2024-05-09T09:38:18.390Z,99.90
2024-05-09T09:40:49.756Z,99.90
2024-05-09T09:43:22.602Z,99.90
2024-05-09T09:45:53.355Z,99.90
2024-05-09T09:48:22.840Z,99.90
2024-05-09T09:50:54.584Z,99.90
2024-05-09T09:53:22.944Z,99.90
2024-05-09T09:55:52.422Z,99.90
2024-05-09T09:58:20.513Z,99.90
2024-05-09T10:00:48.475Z,99.90
2024-05-09T10:03:16.299Z,99.90
2024-05-09T10:05:47.008Z,99.90
2024-05-09T10:08:16.122Z,99.90
2024-05-09T10:10:46.950Z,99.90
2024-05-09T10:13:15.096Z,99.90
2024-05-09T10:15:46.841Z,99.90
2024-05-09T10:18:15.101Z,99.90
2024-05-09T10:20:43.677Z,99.90
2024-05-09T10:23:27.358Z,99.90
2024-05-09T10:25:58.123Z,99.90
2024-05-09T10:28:29.429Z,99.90
2024-05-09T10:31:02.356Z,99.90
2024-05-09T10:33:56.679Z,99.90
2024-05-09T10:36:29.116Z,99.90
2024-05-09T10:38:56.796Z,99.90
2024-05-09T10:41:25.178Z,99.90
2024-05-09T10:43:53.303Z,99.90
2024-05-09T10:46:21.192Z,99.90
2024-05-09T10:48:50.878Z,99.90
2024-05-09T10:51:19.780Z,99.90
2024-05-09T10:53:48.379Z,99.90
2024-05-09T10:56:16.552Z,99.90
2024-05-09T10:58:44.992Z,99.90
2024-05-09T11:01:19.417Z,99.90
2024-05-09T11:03:48.070Z,99.90
2024-05-09T11:06:18.814Z,99.90
2024-05-09T11:08:47.210Z,99.90
2024-05-09T11:11:15.375Z,99.90
2024-05-09T11:13:42.957Z,99.90
2024-05-09T11:16:19.613Z,99.90
2024-05-09T11:18:57.319Z,99.90
2024-05-09T11:21:25.350Z,99.90
2024-05-09T11:23:53.247Z,99.90
2024-05-09T11:26:22.305Z,99.90
2024-05-09T11:28:50.978Z,99.90
2024-05-09T11:31:19.069Z,99.90
2024-05-09T11:33:47.313Z,99.90
2024-05-09T11:36:15.522Z,99.90
2024-05-09T11:38:43.372Z,99.90
2024-05-09T11:41:16.921Z,99.90
2024-05-09T11:43:44.664Z,99.90
2024-05-09T11:46:12.485Z,99.90
2024-05-09T11:48:40.291Z,99.90
2024-05-09T11:51:07.978Z,99.90
2024-05-09T11:53:35.613Z,99.90
2024-05-09T11:56:03.466Z,99.90
2024-05-09T11:58:34.743Z,99.90
2024-05-09T12:01:02.887Z,99.90
2024-05-09T12:03:30.875Z,99.90
2024-05-09T12:05:58.916Z,99.90
2024-05-09T12:08:27.000Z,99.90
2024-05-09T12:10:55.045Z,99.90
2024-05-09T12:13:22.925Z,99.90
2024-05-09T12:15:50.634Z,99.90
2024-05-09T12:18:18.195Z,99.90
2024-05-09T12:20:45.938Z,99.90
2024-05-09T12:23:13.756Z,99.90
2024-05-09T12:25:41.321Z,99.90
2024-05-09T12:28:09.368Z,99.90
2024-05-09T12:30:40.340Z,99.90
2024-05-09T12:33:13.591Z,99.90
2024-05-09T12:35:46.520Z,99.90
2024-05-09T12:38:16.041Z,99.90
2024-05-09T12:40:43.907Z,99.90
2024-05-09T12:43:12.181Z,99.90
2024-05-09T12:45:40.557Z,99.90
2024-05-09T12:48:14.226Z,99.90
2024-05-09T12:50:42.380Z,99.90
2024-05-09T12:53:10.260Z,99.90
2024-05-09T12:55:45.126Z,99.90
2024-05-09T12:58:24.187Z,99.90
2024-05-09T13:00:52.827Z,99.90
2024-05-09T13:03:21.054Z,99.90
2024-05-09T13:05:52.796Z,99.90
2024-05-09T13:08:21.213Z,99.90
2024-05-09T13:10:50.535Z,99.90
2024-05-09T13:13:18.658Z,99.80
2024-05-09T13:15:46.768Z,99.80
2024-05-09T13:18:14.781Z,99.00
2024-05-09T13:20:42.596Z,99.10
2024-05-09T13:23:10.375Z,98.80
2024-05-09T13:25:38.488Z,99.80
2024-05-09T13:28:07.341Z,99.90
2024-05-09T13:30:40.387Z,99.90
2024-05-09T13:33:11.586Z,99.40
2024-05-09T13:35:45.548Z,99.80
2024-05-09T13:38:17.510Z,99.90
2024-05-09T13:40:45.369Z,99.20
2024-05-09T13:43:13.455Z,99.30
2024-05-09T13:45:41.119Z,98.70
2024-05-09T13:48:10.388Z,98.60
2024-05-09T13:50:39.183Z,98.30
2024-05-09T13:53:08.092Z,98.00
2024-05-09T13:55:40.201Z,98.90
2024-05-09T13:58:09.013Z,99.00
2024-05-09T14:00:45.903Z,98.30
2024-05-09T14:03:18.007Z,97.90
2024-05-09T14:05:47.693Z,98.00
2024-05-09T14:08:17.965Z,97.80
2024-05-09T14:10:47.284Z,98.20
2024-05-09T14:13:15.247Z,97.90
2024-05-09T14:15:42.997Z,97.90
2024-05-09T14:18:13.489Z,98.40
2024-05-09T14:20:42.520Z,98.00
2024-05-09T14:23:11.355Z,96.80
2024-05-09T14:25:42.655Z,97.60
2024-05-09T14:28:12.940Z,98.10
2024-05-09T14:30:41.598Z,98.90
2024-05-09T14:33:09.783Z,98.90
2024-05-09T14:35:38.895Z,98.20
2024-05-09T14:38:07.430Z,98.70
2024-05-09T14:40:41.438Z,98.80
2024-05-09T14:43:12.404Z,98.60
2024-05-09T14:45:40.756Z,97.70
2024-05-09T14:48:09.125Z,96.80
2024-05-09T14:50:39.275Z,97.20
2024-05-09T14:53:10.930Z,98.00
2024-05-09T14:55:39.953Z,97.00
2024-05-09T14:58:09.464Z,96.80
2024-05-09T15:00:40.345Z,97.90
2024-05-09T15:03:10.815Z,97.50
2024-05-09T15:05:38.513Z,97.10
2024-05-09T15:08:07.304Z,97.60
2024-05-09T15:10:36.609Z,97.20
2024-05-09T15:13:07.181Z,98.60
2024-05-09T15:15:36.910Z,98.20
2024-05-09T15:18:05.495Z,98.60
2024-05-09T15:20:36.391Z,98.70
2024-05-09T15:23:06.046Z,99.20
2024-05-09T15:25:36.151Z,97.30
2024-05-09T15:28:05.267Z,98.80
2024-05-09T15:30:34.351Z,98.10
2024-05-09T15:33:06.945Z,97.80
2024-05-09T15:35:36.239Z,98.40
2024-05-09T15:38:04.550Z,97.10
2024-05-09T15:40:39.053Z,97.90
2024-05-09T15:43:10.441Z,98.50
2024-05-09T15:45:40.603Z,98.40
2024-05-09T15:48:09.744Z,98.10
2024-05-09T15:50:41.163Z,98.40
2024-05-09T15:53:11.899Z,98.80
2024-05-09T15:55:40.493Z,98.80
2024-05-09T15:58:08.387Z,98.60
2024-05-09T16:00:39.986Z,98.90
2024-05-09T16:03:11.105Z,99.10
2024-05-09T16:05:41.307Z,98.80
2024-05-09T16:08:09.583Z,98.80
2024-05-09T16:10:43.533Z,98.60
2024-05-09T16:13:12.806Z,98.50
2024-05-09T16:15:40.739Z,98.70
2024-05-09T16:18:08.716Z,98.60
2024-05-09T16:20:40.323Z,99.30
2024-05-09T16:23:10.915Z,98.70
2024-05-09T16:25:39.525Z,98.40
2024-05-09T16:28:10.178Z,98.70
2024-05-09T16:30:39.747Z,99.10
2024-05-09T16:33:08.667Z,99.50
2024-05-09T16:35:37.622Z,99.50
2024-05-09T16:38:06.228Z,98.90
2024-05-09T16:40:38.815Z,99.00
2024-05-09T16:43:12.735Z,99.20
2024-05-09T16:45:44.230Z,98.70
2024-05-09T16:48:13.551Z,99.10
2024-05-09T16:50:41.356Z,98.90
2024-05-09T16:53:09.263Z,99.50
2024-05-09T16:55:37.163Z,99.40
2024-05-09T16:58:06.768Z,99.60
2024-05-09T17:00:40.930Z,99.20
2024-05-09T17:03:12.842Z,99.20
2024-05-09T17:05:42.058Z,98.00
2024-05-09T17:08:10.312Z,98.00
2024-05-09T17:10:38.146Z,97.90
2024-05-09T17:13:07.404Z,97.70
2024-05-09T17:15:37.338Z,98.00
2024-05-09T17:18:06.965Z,97.30
2024-05-09T17:20:36.956Z,98.20
2024-05-09T17:23:13.412Z,98.40
2024-05-09T17:25:42.193Z,99.10
2024-05-09T17:28:10.680Z,99.50
2024-05-09T17:30:40.371Z,99.60
2024-05-09T17:33:10.679Z,99.80
2024-05-09T17:35:39.324Z,99.90
2024-05-09T17:38:07.404Z,99.90
2024-05-09T17:40:37.359Z,99.90
2024-05-09T17:43:08.786Z,99.90
2024-05-09T17:45:39.229Z,99.90
2024-05-09T17:48:08.346Z,99.90
2024-05-09T17:50:37.689Z,99.90
2024-05-09T17:53:06.628Z,99.90
2024-05-09T17:55:34.832Z,99.90
2024-05-09T17:58:03.363Z,99.90
2024-05-09T18:00:37.928Z,99.90
2024-05-09T18:03:11.846Z,99.90
2024-05-09T18:05:41.092Z,99.90
2024-05-09T18:08:09.168Z,99.90
2024-05-09T18:10:39.481Z,99.90
2024-05-09T18:13:08.798Z,99.90
2024-05-09T18:15:37.310Z,99.90
2024-05-09T18:18:05.724Z,99.90
2024-05-09T18:20:42.332Z,99.90
2024-05-09T18:23:14.616Z,99.90
2024-05-09T18:25:43.570Z,99.90
2024-05-09T18:28:11.357Z,99.90
2024-05-09T18:30:39.389Z,99.90
2024-05-09T18:33:08.251Z,99.90
2024-05-09T18:35:36.737Z,99.90
2024-05-09T18:38:05.796Z,99.90
2024-05-09T18:40:36.627Z,99.90
2024-05-09T18:43:07.832Z,99.90
2024-05-09T18:45:40.223Z,99.90
2024-05-09T18:48:09.058Z,99.90
2024-05-09T18:50:39.985Z,99.90
2024-05-09T18:53:11.035Z,99.90
2024-05-09T18:55:39.648Z,99.90
2024-05-09T18:58:07.342Z,99.90
2024-05-09T19:00:38.502Z,99.90
2024-05-09T19:03:11.280Z,99.90
2024-05-09T19:05:42.427Z,99.90
2024-05-09T19:08:11.362Z,99.90
2024-05-09T19:10:41.975Z,99.90
2024-05-09T19:13:12.726Z,99.90
2024-05-09T19:15:42.567Z,99.90
2024-05-09T19:18:11.989Z,99.90
2024-05-09T19:20:39.974Z,99.90
2024-05-09T19:23:07.988Z,99.90
2024-05-09T19:25:36.209Z,99.90
2024-05-09T19:28:04.734Z,99.90
2024-05-09T19:30:39.152Z,99.90
2024-05-09T19:33:12.025Z,99.90
2024-05-09T19:35:40.719Z,99.90
2024-05-09T19:38:08.300Z,99.90
2024-05-09T19:40:36.302Z,99.90
2024-05-09T19:43:07.703Z,99.90
2024-05-09T19:45:36.632Z,99.90
2024-05-09T19:48:05.935Z,99.90
2024-05-09T19:50:41.369Z,99.90
2024-05-09T19:53:12.825Z,99.90
2024-05-09T19:55:40.895Z,99.90
2024-05-09T19:58:08.893Z,99.90
2024-05-09T20:00:39.806Z,99.90
2024-05-09T20:03:10.430Z,99.90
2024-05-09T20:05:38.966Z,99.90
2024-05-09T20:08:07.646Z,99.90
2024-05-09T20:10:36.458Z,99.90
2024-05-09T20:13:06.644Z,99.90
2024-05-09T20:15:37.092Z,99.90
2024-05-09T20:18:05.899Z,99.90
2024-05-09T20:20:39.211Z,99.90
2024-05-09T20:23:13.607Z,99.90
2024-05-09T20:25:42.132Z,99.90
2024-05-09T20:28:10.882Z,99.90
2024-05-09T20:30:38.959Z,99.90
2024-05-09T20:33:08.212Z,99.90
2024-05-09T20:35:37.111Z,99.90
2024-05-09T20:38:05.222Z,99.90
2024-05-09T20:40:36.936Z,99.90
2024-05-09T20:43:10.637Z,99.90
2024-05-09T20:45:39.125Z,99.90
2024-05-09T20:48:07.867Z,99.90
2024-05-09T20:50:39.897Z,99.90
2024-05-09T20:53:11.007Z,99.90
2024-05-09T20:55:39.656Z,99.90
2024-05-09T20:58:07.375Z,99.90
2024-05-09T21:00:40.054Z,99.90
2024-05-09T21:03:11.721Z,99.90
2024-05-09T21:05:40.438Z,99.90
2024-05-09T21:08:08.616Z,99.90
2024-05-09T21:10:37.007Z,99.90
2024-05-09T21:13:06.292Z,99.90
2024-05-09T21:15:35.307Z,99.90
2024-05-09T21:18:03.571Z,99.90
2024-05-09T21:20:33.502Z,99.90
2024-05-09T21:23:02.110Z,99.90
2024-05-09T21:25:30.207Z,99.90
2024-05-09T21:27:58.046Z,99.90
2024-05-09T21:30:32.755Z,99.90
2024-05-09T21:33:09.904Z,99.90
2024-05-09T21:35:39.182Z,99.90
2024-05-09T21:38:07.856Z,99.90
2024-05-09T21:40:36.887Z,99.90
2024-05-09T21:43:06.230Z,99.90
2024-05-09T21:45:34.518Z,99.90
2024-05-09T21:48:05.807Z,99.90
2024-05-09T21:50:39.786Z,99.90
2024-05-09T21:53:13.559Z,99.90
2024-05-09T21:55:42.331Z,99.90
2024-05-09T21:58:10.737Z,99.90
2024-05-09T22:00:43.051Z,99.90
2024-05-09T22:03:11.873Z,99.90
2024-05-09T22:05:42.491Z,99.90
2024-05-09T22:08:11.106Z,99.90
2024-05-09T22:10:38.957Z,99.90
2024-05-09T22:13:07.310Z,99.90
2024-05-09T22:15:36.846Z,99.90
2024-05-09T22:18:05.914Z,99.90
2024-05-09T22:20:38.509Z,99.90
2024-05-09T22:23:08.195Z,99.90
2024-05-09T22:25:36.680Z,99.90
2024-05-09T22:28:05.143Z,99.90
2024-05-09T22:30:37.251Z,99.90
2024-05-09T22:33:09.075Z,99.90
2024-05-09T22:35:38.136Z,99.90
2024-05-09T22:38:06.059Z,99.90
2024-05-09T22:40:43.161Z,99.90
2024-05-09T22:43:20.693Z,99.90
2024-05-09T22:45:50.634Z,99.90
2024-05-09T22:48:19.037Z,99.90
2024-05-09T22:50:46.775Z,99.90
2024-05-09T22:53:14.404Z,99.90
2024-05-09T22:55:42.104Z,99.90
2024-05-09T22:58:09.859Z,99.90
2024-05-09T23:00:37.655Z,99.90
2024-05-09T23:03:05.360Z,99.90
2024-05-09T23:05:33.305Z,99.90
2024-05-09T23:08:01.564Z,99.90
2024-05-09T23:10:35.707Z,99.90
2024-05-09T23:13:08.435Z,99.90
2024-05-09T23:15:37.658Z,99.90
2024-05-09T23:18:05.818Z,99.90
2024-05-09T23:20:38.062Z,99.90
2024-05-09T23:23:08.350Z,99.90
2024-05-09T23:25:37.064Z,99.90
2024-05-09T23:28:05.002Z,99.90
2024-05-09T23:30:37.825Z,99.90
2024-05-09T23:33:09.701Z,99.90
2024-05-09T23:35:37.845Z,99.90
2024-05-09T23:38:05.350Z,99.90
2024-05-09T23:40:39.395Z,99.90
2024-05-09T23:43:09.636Z,99.90
2024-05-09T23:45:38.066Z,99.90
2024-05-09T23:48:06.323Z,99.90
2024-05-09T23:50:37.285Z,99.90
2024-05-09T23:53:08.071Z,99.90
2024-05-09T23:55:37.287Z,99.90
2024-05-09T23:58:05.339Z,99.90
